Time,TemperatureF,DewpointF,PressureIn,WindDirection,WindDirectionDegrees,WindSpeedMPH,WindSpeedGustMPH,Humidity,HourlyPrecipIn,Conditions,Clouds,dailyrainin,SolarRadiationWatts/m^2,SoftwareType,DateUTC
2013-02-18 00:00:00,70.8,63.2,30.06,ENE,77,11.0,11.0,77,0.00,,,0.00,0,Wunderground v.1.15,2013-02-18 10:00:00,
2013-02-18 00:05:00,70.8,63.6,30.05,ENE,78,10.0,11.0,78,0.00,,,0.00,0,Wunderground v.1.15,2013-02-18 10:05:00,
2013-02-18 00:10:00,70.9,63.7,30.05,NE,55,9.0,9.0,78,0.00,,,0.00,0,Wunderground v.1.15,2013-02-18 10:10:00,
2013-02-18 00:15:00,70.9,64.1,30.05,East,98,10.0,24.0,79,0.00,,,0.00,0,Wunderground v.1.15,2013-02-18 10:15:00,
2013-02-18 00:20:00,70.6,63.8,30.06,ENE,72,13.0,13.0,79,0.00,,,0.00,0,Wunderground v.1.15,2013-02-18 10:20:00,
2013-02-18 00:25:00,70.0,63.5,30.05,NNE,25,14.0,14.0,80,0.00,,,0.00,0,Wunderground v.1.15,2013-02-18 10:25:00,
2013-02-18 00:30:00,69.7,63.6,30.05,ENE,73,13.0,17.0,81,0.00,,,0.00,0,Wunderground v.1.15,2013-02-18 10:30:00,
2013-02-18 00:35:00,69.7,63.6,30.05,East,82,13.0,17.0,81,0.00,,,0.00,0,Wunderground v.1.15,2013-02-18 10:35:00,
2013-02-18 00:40:00,69.7,63.3,30.05,NE,53,12.0,12.0,80,0.00,,,0.00,0,Wunderground v.1.15,2013-02-18 10:40:00,
2013-02-18 00:45:00,69.6,62.8,30.05,ESE,119,12.0,12.0,79,0.00,,,0.00,0,Wunderground v.1.15,2013-02-18 10:45:00,
2013-02-18 00:50:00,69.2,62.4,30.05,ENE,74,12.0,16.0,79,0.00,,,0.00,0,Wunderground v.1.15,2013-02-18 10:50:00,
2013-02-18 00:55:00,69.0,62.6,30.05,ENE,68,11.0,16.0,80,0.00,,,0.00,0,Wunderground v.1.15,2013-02-18 10:55:00,
2013-02-18 01:05:00,69.2,63.1,30.05,ENE,65,9.0,10.0,81,0.00,,,0.00,0,Wunderground v.1.15,2013-02-18 11:05:00,
2013-02-18 01:10:00,69.5,63.1,30.04,NE,52,10.0,11.0,80,0.00,,,0.00,0,Wunderground v.1.15,2013-02-18 11:10:00,
2013-02-18 01:15:00,69.8,63.0,30.05,ESE,109,12.0,15.0,79,0.00,,,0.00,0,Wunderground v.1.15,2013-02-18 11:15:00,
2013-02-18 01:20:00,69.9,63.1,30.05,NE,53,13.0,13.0,79,0.00,,,0.00,0,Wunderground v.1.15,2013-02-18 11:20:00,
2013-02-18 01:25:00,69.5,63.1,30.04,ENE,74,11.0,13.0,80,0.00,,,0.00,0,Wunderground v.1.15,2013-02-18 11:25:00,
2013-02-18 01:30:00,69.0,62.9,30.04,East,85,11.0,11.0,81,0.00,,,0.00,0,Wunderground v.1.15,2013-02-18 11:30:00,
2013-02-18 01:35:00,69.0,62.9,30.04,NE,45,11.0,11.0,81,0.00,,,0.00,0,Wunderground v.1.15,2013-02-18 11:35:00,
2013-02-18 01:40:00,68.6,62.5,30.04,ENE,73,11.0,11.0,81,0.00,,,0.00,0,Wunderground v.1.15,2013-02-18 11:40:00,
2013-02-18 01:45:00,68.3,62.9,30.04,NE,44,11.0,11.0,83,0.00,,,0.00,0,Wunderground v.1.15,2013-02-18 11:45:00,
2013-02-18 01:50:00,68.1,62.7,30.03,ENE,57,8.0,8.0,83,0.00,,,0.00,0,Wunderground v.1.15,2013-02-18 11:50:00,
2013-02-18 01:55:00,68.4,63.4,30.03,ENE,62,8.0,11.0,84,0.00,,,0.00,0,Wunderground v.1.15,2013-02-18 11:55:00,
2013-02-18 02:05:00,68.6,62.9,30.03,ESE,115,11.0,16.0,82,0.00,,,0.00,0,Wunderground v.1.15,2013-02-18 12:05:00,
2013-02-18 02:15:00,68.9,63.5,30.03,East,87,11.0,11.0,83,0.00,,,0.00,0,Wunderground v.1.15,2013-02-18 12:15:00,
2013-02-18 02:25:00,69.0,63.6,30.02,East,86,10.0,14.0,83,0.00,,,0.00,0,Wunderground v.1.15,2013-02-18 12:25:00,
2013-02-18 02:30:00,69.4,63.7,30.03,East,79,10.0,10.0,82,0.00,,,0.00,0,Wunderground v.1.15,2013-02-18 12:30:00,
2013-02-18 02:35:00,69.3,63.2,30.03,NE,44,9.0,13.0,81,0.00,,,0.00,0,Wunderground v.1.15,2013-02-18 12:35:00,
2013-02-18 02:40:00,69.5,63.4,30.03,ESE,106,8.0,9.0,81,0.00,,,0.00,0,Wunderground v.1.15,2013-02-18 12:40:00,
2013-02-18 02:45:00,69.6,62.8,30.03,NE,46,9.0,11.0,79,0.00,,,0.00,0,Wunderground v.1.15,2013-02-18 12:45:00,
2013-02-18 02:50:00,70.0,62.8,30.03,ENE,73,10.0,10.0,78,0.00,,,0.00,0,Wunderground v.1.15,2013-02-18 12:50:00,
2013-02-18 02:55:00,70.2,63.0,30.03,ENE,63,11.0,17.0,78,0.00,,,0.00,0,Wunderground v.1.15,2013-02-18 12:55:00,
2013-02-18 03:00:00,70.2,62.3,30.03,NE,38,10.0,10.0,76,0.00,,,0.00,0,Wunderground v.1.15,2013-02-18 13:00:00,
2013-02-18 03:10:00,70.2,62.3,30.03,ENE,68,9.0,9.0,76,0.00,,,0.00,0,Wunderground v.1.15,2013-02-18 13:10:00,
2013-02-18 03:15:00,70.1,62.9,30.03,ENE,61,8.0,14.0,78,0.00,,,0.00,0,Wunderground v.1.15,2013-02-18 13:15:00,
2013-02-18 03:20:00,69.9,62.7,30.02,NE,51,9.0,11.0,78,0.00,,,0.00,0,Wunderground v.1.15,2013-02-18 13:20:00,
2013-02-18 03:30:00,70.1,62.6,30.02,NE,51,10.0,10.0,77,0.00,,,0.00,0,Wunderground v.1.15,2013-02-18 13:30:00,
2013-02-18 03:35:00,70.2,62.3,30.02,NE,46,10.0,10.0,76,0.00,,,0.00,0,Wunderground v.1.15,2013-02-18 13:35:00,
2013-02-18 03:40:00,70.3,61.6,30.02,ENE,63,11.0,11.0,74,0.00,,,0.00,0,Wunderground v.1.15,2013-02-18 13:40:00,
2013-02-18 03:45:00,70.5,62.2,30.02,NE,49,11.0,16.0,75,0.00,,,0.00,0,Wunderground v.1.15,2013-02-18 13:45:00,
2013-02-18 03:50:00,70.7,63.1,30.02,ENE,60,11.0,11.0,77,0.00,,,0.00,0,Wunderground v.1.15,2013-02-18 13:50:00,
2013-02-18 03:55:00,70.7,62.8,30.02,East,84,11.0,17.0,76,0.00,,,0.00,0,Wunderground v.1.15,2013-02-18 13:55:00,
2013-02-18 04:00:00,70.6,62.3,30.02,NE,42,12.0,12.0,75,0.00,,,0.00,0,Wunderground v.1.15,2013-02-18 14:00:00,
2013-02-18 04:05:00,70.4,61.3,30.02,ENE,62,12.0,12.0,73,0.00,,,0.00,0,Wunderground v.1.15,2013-02-18 14:05:00,
2013-02-18 04:14:00,70.4,60.9,30.02,East,84,10.0,14.0,72,0.00,,,0.00,0,Wunderground v.1.15,2013-02-18 14:14:00,
2013-02-18 04:20:00,70.3,60.4,30.02,NE,48,11.0,15.0,71,0.00,,,0.00,0,Wunderground v.1.15,2013-02-18 14:20:00,
2013-02-18 04:25:00,70.5,61.0,30.02,NE,43,12.0,15.0,72,0.00,,,0.00,0,Wunderground v.1.15,2013-02-18 14:25:00,
2013-02-18 04:30:00,70.5,61.0,30.03,ENE,75,11.0,12.0,72,0.00,,,0.00,0,Wunderground v.1.15,2013-02-18 14:30:00,
2013-02-18 04:40:00,70.5,61.4,30.02,ENE,78,9.0,9.0,73,0.00,,,0.00,0,Wunderground v.1.15,2013-02-18 14:40:00,
2013-02-18 04:45:00,70.6,62.3,30.02,NE,42,10.0,10.0,75,0.00,,,0.00,0,Wunderground v.1.15,2013-02-18 14:45:00,
2013-02-18 04:50:00,70.4,62.1,30.02,East,87,11.0,11.0,75,0.00,,,0.00,0,Wunderground v.1.15,2013-02-18 14:50:00,
2013-02-18 04:55:00,70.3,62.0,30.02,ENE,61,11.0,11.0,75,0.00,,,0.00,0,Wunderground v.1.15,2013-02-18 14:55:00,
2013-02-18 05:05:00,70.3,62.0,30.02,ENE,67,11.0,14.0,75,0.00,,,0.00,0,Wunderground v.1.15,2013-02-18 15:05:00,
2013-02-18 05:10:00,70.3,62.0,30.02,ENE,61,11.0,20.0,75,0.00,,,0.00,0,Wunderground v.1.15,2013-02-18 15:10:00,
2013-02-18 05:15:00,70.3,61.6,30.02,East,100,12.0,20.0,74,0.00,,,0.00,0,Wunderground v.1.15,2013-02-18 15:15:00,
2013-02-18 05:20:00,70.3,60.4,30.02,NE,42,12.0,12.0,71,0.00,,,0.00,0,Wunderground v.1.15,2013-02-18 15:20:00,
2013-02-18 05:25:00,70.4,60.5,30.03,ENE,74,12.0,16.0,71,0.00,,,0.00,0,Wunderground v.1.15,2013-02-18 15:25:00,
2013-02-18 05:35:00,70.4,59.7,30.02,NE,55,12.0,12.0,69,0.00,,,0.00,0,Wunderground v.1.15,2013-02-18 15:35:00,
2013-02-18 05:40:00,70.4,59.7,30.03,ENE,67,11.0,11.0,69,0.00,,,0.00,0,Wunderground v.1.15,2013-02-18 15:40:00,
2013-02-18 05:50:00,70.4,59.7,30.03,ENE,61,10.0,15.0,69,0.00,,,0.00,0,Wunderground v.1.15,2013-02-18 15:50:00,
2013-02-18 05:55:00,70.4,59.7,30.03,NE,56,10.0,15.0,69,0.00,,,0.00,0,Wunderground v.1.15,2013-02-18 15:55:00,
2013-02-18 06:00:00,70.5,59.8,30.03,NE,46,11.0,14.0,69,0.00,,,0.00,0,Wunderground v.1.15,2013-02-18 16:00:00,
2013-02-18 06:05:00,70.5,60.2,30.03,East,93,12.0,14.0,70,0.00,,,0.00,0,Wunderground v.1.15,2013-02-18 16:05:00,
2013-02-18 06:10:00,70.5,60.2,30.03,East,86,12.0,12.0,70,0.00,,,0.00,0,Wunderground v.1.15,2013-02-18 16:10:00,
2013-02-18 06:15:00,70.4,59.7,30.03,NE,53,10.0,12.0,69,0.00,,,0.00,0,Wunderground v.1.15,2013-02-18 16:15:00,
2013-02-18 06:20:00,70.4,58.9,30.03,ENE,65,11.0,11.0,67,0.00,,,0.00,0,Wunderground v.1.15,2013-02-18 16:20:00,
2013-02-18 06:25:00,70.5,59.4,30.03,East,96,12.0,12.0,68,0.00,,,0.00,0,Wunderground v.1.15,2013-02-18 16:25:00,
2013-02-18 06:30:00,70.5,59.4,30.03,East,79,12.0,13.0,68,0.00,,,0.00,0,Wunderground v.1.15,2013-02-18 16:30:00,
2013-02-18 06:35:00,70.4,59.7,30.03,ENE,68,11.0,13.0,69,0.00,,,0.00,0,Wunderground v.1.15,2013-02-18 16:35:00,
2013-02-18 06:45:00,70.4,59.3,30.04,ENE,72,11.0,13.0,68,0.00,,,0.00,0,Wunderground v.1.15,2013-02-18 16:45:00,
2013-02-18 06:55:00,70.4,58.5,30.04,NE,46,12.0,18.0,66,0.00,,,0.00,0,Wunderground v.1.15,2013-02-18 16:55:00,
2013-02-18 07:00:00,70.5,59.4,30.04,NE,51,11.0,13.0,68,0.00,,,0.00,0,Wunderground v.1.15,2013-02-18 17:00:00,
2013-02-18 07:05:00,70.4,58.9,30.04,ENE,75,11.0,13.0,67,0.00,,,0.00,5,Wunderground v.1.15,2013-02-18 17:05:00,
2013-02-18 07:10:00,70.5,59.8,30.04,ENE,63,10.0,16.0,69,0.00,,,0.00,19,Wunderground v.1.15,2013-02-18 17:10:00,
2013-02-18 07:15:00,70.5,59.8,30.05,East,92,10.0,16.0,69,0.00,,,0.00,26,Wunderground v.1.15,2013-02-18 17:15:00,
2013-02-18 07:25:00,70.7,60.4,30.05,East,84,9.0,9.0,70,0.00,,,0.00,53,Wunderground v.1.15,2013-02-18 17:25:00,
2013-02-18 07:30:00,70.8,60.5,30.05,ENE,66,10.0,10.0,70,0.00,,,0.00,76,Wunderground v.1.15,2013-02-18 17:30:00,
2013-02-18 07:35:00,70.9,60.6,30.06,ENE,67,11.0,15.0,70,0.00,,,0.00,88,Wunderground v.1.15,2013-02-18 17:35:00,
2013-02-18 07:40:00,71.0,61.1,30.06,ENE,61,11.0,11.0,71,0.00,,,0.00,120,Wunderground v.1.15,2013-02-18 17:40:00,
2013-02-18 07:45:00,71.1,61.2,30.06,NE,50,9.0,11.0,71,0.00,,,0.00,98,Wunderground v.1.15,2013-02-18 17:45:00,
2013-02-18 07:50:00,71.1,61.2,30.06,NE,49,10.0,16.0,71,0.00,,,0.00,186,Wunderground v.1.15,2013-02-18 17:50:00,
2013-02-18 08:00:00,71.4,61.1,30.06,ENE,78,10.0,10.0,70,0.00,,,0.00,134,Wunderground v.1.15,2013-02-18 18:00:00,
2013-02-18 08:05:00,71.6,61.7,30.06,ESE,113,11.0,15.0,71,0.00,,,0.00,236,Wunderground v.1.15,2013-02-18 18:05:00,
2013-02-18 08:10:00,71.7,61.0,30.06,East,84,11.0,14.0,69,0.00,,,0.00,251,Wunderground v.1.15,2013-02-18 18:10:00,
2013-02-18 08:15:00,71.7,62.2,30.06,ENE,65,10.0,14.0,72,0.00,,,0.00,220,Wunderground v.1.15,2013-02-18 18:15:00,
2013-02-18 08:20:00,71.6,61.7,30.06,NE,47,10.0,10.0,71,0.00,,,0.00,151,Wunderground v.1.15,2013-02-18 18:20:00,
2013-02-18 08:30:00,72.2,62.7,30.06,NE,42,10.0,10.0,72,0.00,,,0.00,158,Wunderground v.1.15,2013-02-18 18:30:00,
2013-02-18 08:35:00,72.1,62.6,30.06,NE,56,10.0,10.0,72,0.00,,,0.00,192,Wunderground v.1.15,2013-02-18 18:35:00,
2013-02-18 08:40:00,72.0,62.1,30.07,ENE,65,11.0,17.0,71,0.00,,,0.00,206,Wunderground v.1.15,2013-02-18 18:40:00,
2013-02-18 08:45:00,71.9,61.6,30.07,NE,40,11.0,17.0,70,0.00,,,0.00,214,Wunderground v.1.15,2013-02-18 18:45:00,
2013-02-18 08:50:00,71.9,62.0,30.07,East,79,11.0,11.0,71,0.00,,,0.00,132,Wunderground v.1.15,2013-02-18 18:50:00,
2013-02-18 09:00:00,72.1,61.8,30.07,ENE,72,10.0,10.0,70,0.00,,,0.00,176,Wunderground v.1.15,2013-02-18 19:00:00,
2013-02-18 09:10:00,71.7,62.2,30.08,ENE,71,12.0,13.0,72,0.00,,,0.00,158,Wunderground v.1.15,2013-02-18 19:10:00,
2013-02-18 09:15:00,71.7,61.8,30.08,East,96,12.0,13.0,71,0.00,,,0.00,155,Wunderground v.1.15,2013-02-18 19:15:00,
2013-02-18 09:20:00,71.7,62.2,30.07,NE,56,11.0,11.0,72,0.00,,,0.00,135,Wunderground v.1.15,2013-02-18 19:20:00,
2013-02-18 09:25:00,71.7,62.6,30.08,ENE,65,10.0,11.0,73,0.00,,,0.00,172,Wunderground v.1.15,2013-02-18 19:25:00,
2013-02-18 09:30:00,71.9,62.4,30.08,East,82,11.0,11.0,72,0.00,,,0.00,248,Wunderground v.1.15,2013-02-18 19:30:00,
2013-02-18 09:40:00,72.1,62.6,30.08,ESE,109,12.0,12.0,72,0.00,,,0.00,274,Wunderground v.1.15,2013-02-18 19:40:00,
2013-02-18 09:45:00,72.5,62.6,30.07,East,95,11.0,18.0,71,0.00,,,0.00,383,Wunderground v.1.15,2013-02-18 19:45:00,
2013-02-18 09:50:00,73.5,61.9,30.07,NE,52,10.0,10.0,67,0.00,,,0.00,803,Wunderground v.1.15,2013-02-18 19:50:00,
2013-02-18 09:55:00,73.3,61.7,30.08,NE,37,11.0,16.0,67,0.00,,,0.00,272,Wunderground v.1.15,2013-02-18 19:55:00,
2013-02-18 10:00:00,72.9,61.7,30.07,NE,45,12.0,12.0,68,0.00,,,0.00,232,Wunderground v.1.15,2013-02-18 20:00:00,
2013-02-18 10:05:00,72.9,62.1,30.07,NE,46,12.0,18.0,69,0.00,,,0.00,325,Wunderground v.1.15,2013-02-18 20:05:00,
2013-02-18 10:10:00,73.2,62.0,30.07,East,95,11.0,11.0,68,0.00,,,0.00,353,Wunderground v.1.15,2013-02-18 20:10:00,
2013-02-18 10:15:00,73.5,61.9,30.08,East,79,11.0,13.0,67,0.00,,,0.00,251,Wunderground v.1.15,2013-02-18 20:15:00,
2013-02-18 10:20:00,73.2,62.0,30.07,ENE,68,12.0,12.0,68,0.00,,,0.00,445,Wunderground v.1.15,2013-02-18 20:20:00,
2013-02-18 10:25:00,73.3,62.1,30.07,NNE,28,12.0,12.0,68,0.00,,,0.00,374,Wunderground v.1.15,2013-02-18 20:25:00,
2013-02-18 10:35:00,73.1,61.9,30.08,NE,49,13.0,13.0,68,0.00,,,0.00,352,Wunderground v.1.15,2013-02-18 20:35:00,
2013-02-18 10:40:00,73.1,61.9,30.07,NE,52,14.0,14.0,68,0.00,,,0.00,499,Wunderground v.1.15,2013-02-18 20:40:00,
2013-02-18 10:50:00,74.6,62.9,30.07,East,101,10.0,10.0,67,0.00,,,0.00,446,Wunderground v.1.15,2013-02-18 20:50:00,
2013-02-18 10:55:00,74.7,63.4,30.07,NE,48,11.0,16.0,68,0.00,,,0.00,283,Wunderground v.1.15,2013-02-18 20:55:00,
2013-02-18 11:00:00,74.0,62.3,30.07,SE,138,12.0,18.0,67,0.00,,,0.00,415,Wunderground v.1.15,2013-02-18 21:00:00,
2013-02-18 11:10:00,73.4,63.0,30.07,East,92,12.0,15.0,70,0.00,,,0.00,279,Wunderground v.1.15,2013-02-18 21:10:00,
2013-02-18 11:15:00,73.5,63.1,30.06,East,86,12.0,15.0,70,0.00,,,0.00,656,Wunderground v.1.15,2013-02-18 21:15:00,
2013-02-18 11:25:00,74.0,64.4,30.06,ENE,74,10.0,11.0,72,0.00,,,0.00,478,Wunderground v.1.15,2013-02-18 21:25:00,
2013-02-18 11:30:00,74.0,64.4,30.05,NE,52,10.0,14.0,72,0.00,,,0.00,316,Wunderground v.1.15,2013-02-18 21:30:00,
2013-02-18 11:35:00,73.6,64.8,30.05,NE,42,9.0,14.0,74,0.00,,,0.00,461,Wunderground v.1.15,2013-02-18 21:35:00,
2013-02-18 11:40:00,73.5,63.1,30.05,ESE,116,10.0,13.0,70,0.00,,,0.00,381,Wunderground v.1.15,2013-02-18 21:40:00,
2013-02-18 11:45:00,73.8,63.4,30.05,East,85,11.0,13.0,70,0.00,,,0.00,436,Wunderground v.1.15,2013-02-18 21:45:00,
2013-02-18 11:50:00,73.8,63.8,30.05,ESE,112,10.0,10.0,71,0.00,,,0.00,381,Wunderground v.1.15,2013-02-18 21:50:00,
2013-02-18 11:55:00,73.8,64.2,30.05,ENE,61,11.0,12.0,72,0.00,,,0.00,554,Wunderground v.1.15,2013-02-18 21:55:00,
2013-02-18 12:00:00,73.8,63.8,30.04,East,98,11.0,11.0,71,0.00,,,0.00,418,Wunderground v.1.15,2013-02-18 22:00:00,
2013-02-18 12:10:00,74.2,64.6,30.04,East,81,11.0,11.0,72,0.00,,,0.00,1074,Wunderground v.1.15,2013-02-18 22:10:00,
2013-02-18 12:15:00,74.9,64.9,30.04,ENE,68,11.0,11.0,71,0.00,,,0.00,960,Wunderground v.1.15,2013-02-18 22:15:00,
2013-02-18 12:20:00,75.0,65.0,30.04,ENE,68,11.0,21.0,71,0.00,,,0.00,953,Wunderground v.1.15,2013-02-18 22:20:00,
2013-02-18 12:30:00,74.9,64.5,30.04,ENE,75,11.0,16.0,70,0.00,,,0.00,388,Wunderground v.1.15,2013-02-18 22:30:00,
2013-02-18 12:35:00,74.5,64.5,30.03,East,86,11.0,16.0,71,0.00,,,0.00,578,Wunderground v.1.15,2013-02-18 22:35:00,
2013-02-18 12:40:00,74.2,64.2,30.03,NE,51,12.0,12.0,71,0.00,,,0.00,425,Wunderground v.1.15,2013-02-18 22:40:00,
2013-02-18 12:45:00,74.4,64.0,30.02,ENE,71,12.0,12.0,70,0.00,,,0.00,1185,Wunderground v.1.15,2013-02-18 22:45:00,
2013-02-18 12:50:00,74.6,64.2,30.02,East,81,11.0,11.0,70,0.00,,,0.00,359,Wunderground v.1.15,2013-02-18 22:50:00,
2013-02-18 12:55:00,74.6,64.2,30.02,NE,47,11.0,12.0,70,0.00,,,0.00,369,Wunderground v.1.15,2013-02-18 22:55:00,
2013-02-18 13:05:00,74.0,64.0,30.02,NE,49,11.0,21.0,71,0.00,,,0.00,264,Wunderground v.1.15,2013-02-18 23:05:00,
2013-02-18 13:10:00,73.9,63.1,30.02,NE,48,11.0,17.0,69,0.00,,,0.00,1011,Wunderground v.1.15,2013-02-18 23:10:00,
2013-02-18 13:15:00,74.2,63.0,30.01,NE,49,13.0,17.0,68,0.00,,,0.00,1016,Wunderground v.1.15,2013-02-18 23:15:00,
2013-02-18 13:20:00,74.4,62.7,30.01,East,86,14.0,22.0,67,0.00,,,0.00,1016,Wunderground v.1.15,2013-02-18 23:20:00,
2013-02-18 13:25:00,74.1,62.0,30.01,East,90,13.0,22.0,66,0.00,,,0.00,469,Wunderground v.1.15,2013-02-18 23:25:00,
2013-02-18 13:30:00,74.1,62.9,30.01,East,88,13.0,13.0,68,0.00,,,0.00,309,Wunderground v.1.15,2013-02-18 23:30:00,
2013-02-18 13:35:00,74.3,63.1,30.00,East,92,12.0,13.0,68,0.00,,,0.00,998,Wunderground v.1.15,2013-02-18 23:35:00,
2013-02-18 13:40:00,74.9,63.2,30.00,ENE,73,12.0,12.0,67,0.00,,,0.00,1048,Wunderground v.1.15,2013-02-18 23:40:00,
2013-02-18 13:50:00,74.7,62.6,30.00,East,100,10.0,10.0,66,0.00,,,0.00,325,Wunderground v.1.15,2013-02-18 23:50:00,
2013-02-18 13:55:00,75.1,61.2,29.99,East,90,10.0,10.0,62,0.00,,,0.00,953,Wunderground v.1.15,2013-02-18 23:55:00,
2013-02-18 14:00:00,75.5,61.6,29.99,NE,53,11.0,11.0,62,0.00,,,0.00,991,Wunderground v.1.15,2013-02-19 00:00:00,
2013-02-18 14:10:00,75.3,61.8,30.00,NNE,27,11.0,18.0,63,0.00,,,0.00,431,Wunderground v.1.15,2013-02-19 00:10:00,
2013-02-18 14:15:00,74.8,61.8,29.99,East,95,10.0,18.0,64,0.00,,,0.00,174,Wunderground v.1.15,2013-02-19 00:15:00,
2013-02-18 14:20:00,74.5,61.1,29.99,East,95,10.0,11.0,63,0.00,,,0.00,860,Wunderground v.1.15,2013-02-19 00:20:00,
2013-02-18 14:25:00,74.3,60.9,29.99,NE,49,11.0,12.0,63,0.00,,,0.00,316,Wunderground v.1.15,2013-02-19 00:25:00,
2013-02-18 14:30:00,74.1,61.1,29.99,ENE,77,11.0,11.0,64,0.00,,,0.00,919,Wunderground v.1.15,2013-02-19 00:30:00,
2013-02-18 14:35:00,74.7,61.3,29.99,East,101,12.0,12.0,63,0.00,,,0.00,870,Wunderground v.1.15,2013-02-19 00:35:00,
2013-02-18 14:40:00,75.1,62.1,29.99,ENE,57,12.0,14.0,64,0.00,,,0.00,951,Wunderground v.1.15,2013-02-19 00:40:00,
2013-02-18 14:45:00,74.9,61.9,29.99,ENE,78,11.0,14.0,64,0.00,,,0.00,237,Wunderground v.1.15,2013-02-19 00:45:00,
2013-02-18 14:50:00,74.7,61.7,29.99,NE,47,12.0,12.0,64,0.00,,,0.00,884,Wunderground v.1.15,2013-02-19 00:50:00,
2013-02-18 15:00:00,74.9,62.8,29.99,ENE,57,11.0,11.0,66,0.00,,,0.00,183,Wunderground v.1.15,2013-02-19 01:00:00,
2013-02-18 15:05:00,74.0,62.3,29.99,NE,51,11.0,14.0,67,0.00,,,0.00,274,Wunderground v.1.15,2013-02-19 01:05:00,
2013-02-18 15:10:00,73.9,62.2,29.98,ENE,70,10.0,15.0,67,0.00,,,0.00,821,Wunderground v.1.15,2013-02-19 01:10:00,
2013-02-18 15:15:00,74.4,61.4,29.99,East,92,10.0,15.0,64,0.00,,,0.00,867,Wunderground v.1.15,2013-02-19 01:15:00,
2013-02-18 15:20:00,74.3,62.2,29.98,ENE,77,10.0,10.0,66,0.00,,,0.00,320,Wunderground v.1.15,2013-02-19 01:20:00,
2013-02-18 16:25:00,73.1,60.2,29.99,NE,49,9.0,10.0,64,0.00,,,0.00,153,Wunderground v.1.15,2013-02-19 02:25:00,
2013-02-18 16:30:00,73.0,60.1,29.99,ENE,71,8.0,8.0,64,0.00,,,0.00,232,Wunderground v.1.15,2013-02-19 02:30:00,
2013-02-18 16:40:00,72.8,59.9,29.99,ENE,67,10.0,10.0,64,0.00,,,0.00,139,Wunderground v.1.15,2013-02-19 02:40:00,
2013-02-18 16:45:00,72.6,59.3,29.99,ENE,71,11.0,11.0,63,0.00,,,0.00,141,Wunderground v.1.15,2013-02-19 02:45:00,
2013-02-18 16:50:00,72.6,59.7,29.99,East,84,10.0,14.0,64,0.00,,,0.00,158,Wunderground v.1.15,2013-02-19 02:50:00,
2013-02-18 17:00:00,72.8,59.9,30.00,ENE,57,9.0,9.0,64,0.00,,,0.00,223,Wunderground v.1.15,2013-02-19 03:00:00,
2013-02-18 17:15:00,72.6,59.7,30.00,ENE,71,10.0,14.0,64,0.00,,,0.00,167,Wunderground v.1.15,2013-02-19 03:15:00,
2013-02-18 17:20:00,72.6,60.6,30.00,NE,54,9.0,13.0,66,0.00,,,0.00,98,Wunderground v.1.15,2013-02-19 03:20:00,
2013-02-18 17:25:00,72.5,60.5,30.00,ENE,64,8.0,13.0,66,0.00,,,0.00,86,Wunderground v.1.15,2013-02-19 03:25:00,
2013-02-18 17:30:00,72.4,60.4,30.00,ENE,75,8.0,8.0,66,0.00,,,0.00,69,Wunderground v.1.15,2013-02-19 03:30:00,
2013-02-18 17:40:00,72.2,59.3,30.00,East,79,9.0,9.0,64,0.00,,,0.00,60,Wunderground v.1.15,2013-02-19 03:40:00,
2013-02-18 17:50:00,72.1,59.7,30.00,ENE,75,8.0,8.0,65,0.00,,,0.00,90,Wunderground v.1.15,2013-02-19 03:50:00,
2013-02-18 17:55:00,72.1,59.7,30.00,NE,44,8.0,8.0,65,0.00,,,0.00,35,Wunderground v.1.15,2013-02-19 03:55:00,
2013-02-18 18:00:00,72.0,59.6,30.00,NE,48,9.0,9.0,65,0.00,,,0.00,25,Wunderground v.1.15,2013-02-19 04:00:00,
2013-02-18 18:05:00,71.9,59.9,30.00,ENE,62,9.0,9.0,66,0.00,,,0.00,28,Wunderground v.1.15,2013-02-19 04:05:00,
2013-02-18 18:10:00,71.8,59.4,30.00,NE,40,9.0,11.0,65,0.00,,,0.00,23,Wunderground v.1.15,2013-02-19 04:10:00,
2013-02-18 18:15:00,71.7,59.3,30.00,ENE,75,9.0,11.0,65,0.00,,,0.00,18,Wunderground v.1.15,2013-02-19 04:15:00,
2013-02-18 18:20:00,71.7,60.2,30.00,NE,53,9.0,9.0,67,0.00,,,0.00,14,Wunderground v.1.15,2013-02-19 04:20:00,
2013-02-18 18:25:00,71.7,60.2,30.00,East,84,9.0,11.0,67,0.00,,,0.00,9,Wunderground v.1.15,2013-02-19 04:25:00,
2013-02-18 18:35:00,71.7,61.0,30.00,ENE,74,9.0,9.0,69,0.00,,,0.00,0,Wunderground v.1.15,2013-02-19 04:35:00,
2013-02-18 18:40:00,71.7,60.6,30.00,ENE,74,9.0,11.0,68,0.00,,,0.00,0,Wunderground v.1.15,2013-02-19 04:40:00,
2013-02-18 18:45:00,71.6,60.1,30.01,East,82,10.0,11.0,67,0.00,,,0.00,0,Wunderground v.1.15,2013-02-19 04:45:00,
2013-02-18 18:50:00,71.6,60.5,30.01,ENE,67,11.0,11.0,68,0.00,,,0.00,0,Wunderground v.1.15,2013-02-19 04:50:00,
2013-02-18 18:55:00,71.5,60.0,30.01,ENE,64,11.0,11.0,67,0.00,,,0.00,0,Wunderground v.1.15,2013-02-19 04:55:00,
2013-02-18 19:05:00,71.6,60.9,30.01,NE,54,8.0,10.0,69,0.00,,,0.00,0,Wunderground v.1.15,2013-02-19 05:05:00,
2013-02-18 19:10:00,71.5,60.4,30.01,ENE,72,8.0,8.0,68,0.00,,,0.00,0,Wunderground v.1.15,2013-02-19 05:10:00,
2013-02-18 19:15:00,71.5,60.0,30.02,East,88,8.0,10.0,67,0.00,,,0.00,0,Wunderground v.1.15,2013-02-19 05:15:00,
2013-02-18 19:20:00,71.6,60.1,30.02,NE,56,10.0,14.0,67,0.00,,,0.00,0,Wunderground v.1.15,2013-02-19 05:20:00,
2013-02-18 19:30:00,71.7,59.7,30.02,ENE,69,9.0,12.0,66,0.00,,,0.00,0,Wunderground v.1.15,2013-02-19 05:30:00,
2013-02-18 19:35:00,71.7,59.7,30.03,ENE,71,11.0,15.0,66,0.00,,,0.00,0,Wunderground v.1.15,2013-02-19 05:35:00,
2013-02-18 19:45:00,71.7,59.7,30.03,NE,49,10.0,17.0,66,0.00,,,0.00,0,Wunderground v.1.15,2013-02-19 05:45:00,
2013-02-18 19:50:00,71.7,59.7,30.03,NE,46,10.0,11.0,66,0.00,,,0.00,0,Wunderground v.1.15,2013-02-19 05:50:00,
2013-02-18 19:55:00,71.7,59.7,30.03,East,89,11.0,11.0,66,0.00,,,0.00,0,Wunderground v.1.15,2013-02-19 05:55:00,
2013-02-18 20:00:00,71.6,60.5,30.04,NE,46,10.0,12.0,68,0.00,,,0.00,0,Wunderground v.1.15,2013-02-19 06:00:00,
2013-02-18 20:05:00,71.5,60.4,30.04,ENE,71,9.0,17.0,68,0.00,,,0.00,0,Wunderground v.1.15,2013-02-19 06:05:00,
2013-02-18 20:10:00,71.5,59.5,30.04,ENE,71,11.0,12.0,66,0.00,,,0.00,0,Wunderground v.1.15,2013-02-19 06:10:00,
2013-02-18 20:15:00,71.4,59.9,30.04,NE,56,10.0,14.0,67,0.00,,,0.00,0,Wunderground v.1.15,2013-02-19 06:15:00,
2013-02-18 20:20:00,71.4,60.3,30.04,NE,46,9.0,15.0,68,0.00,,,0.00,0,Wunderground v.1.15,2013-02-19 06:20:00,
2013-02-18 20:25:00,71.4,59.9,30.05,NE,50,10.0,15.0,67,0.00,,,0.00,0,Wunderground v.1.15,2013-02-19 06:25:00,
2013-02-18 20:30:00,71.4,60.3,30.05,ENE,69,10.0,10.0,68,0.00,,,0.00,0,Wunderground v.1.15,2013-02-19 06:30:00,
2013-02-18 20:35:00,71.4,60.3,30.05,ENE,61,9.0,10.0,68,0.00,,,0.00,0,Wunderground v.1.15,2013-02-19 06:35:00,
2013-02-18 20:40:00,71.3,59.8,30.05,ENE,78,9.0,11.0,67,0.00,,,0.00,0,Wunderground v.1.15,2013-02-19 06:40:00,
2013-02-18 20:50:00,71.3,60.2,30.05,NE,54,9.0,11.0,68,0.00,,,0.00,0,Wunderground v.1.15,2013-02-19 06:50:00,
2013-02-18 20:55:00,71.4,61.1,30.05,ENE,63,8.0,11.0,70,0.00,,,0.00,0,Wunderground v.1.15,2013-02-19 06:55:00,
2013-02-18 21:00:00,71.3,61.0,30.05,East,82,8.0,9.0,70,0.00,,,0.00,0,Wunderground v.1.15,2013-02-19 07:00:00,
2013-02-18 21:10:00,71.4,60.3,30.06,NE,40,9.0,14.0,68,0.00,,,0.00,0,Wunderground v.1.15,2013-02-19 07:10:00,
2013-02-18 21:20:00,71.4,60.3,30.05,ENE,59,9.0,9.0,68,0.00,,,0.00,0,Wunderground v.1.15,2013-02-19 07:20:00,
2013-02-18 21:25:00,71.4,60.3,30.05,East,87,9.0,9.0,68,0.00,,,0.00,0,Wunderground v.1.15,2013-02-19 07:25:00,
2013-02-18 21:30:00,71.4,61.1,30.05,NE,52,9.0,11.0,70,0.00,,,0.00,0,Wunderground v.1.15,2013-02-19 07:30:00,
2013-02-18 21:35:00,71.4,60.7,30.05,ENE,59,9.0,11.0,69,0.00,,,0.00,0,Wunderground v.1.15,2013-02-19 07:35:00,
2013-02-18 21:45:00,71.3,60.6,30.05,ENE,74,9.0,12.0,69,0.00,,,0.00,0,Wunderground v.1.15,2013-02-19 07:45:00,
2013-02-18 21:50:00,71.3,61.4,30.05,ESE,109,9.0,16.0,71,0.00,,,0.00,0,Wunderground v.1.15,2013-02-19 07:50:00,
2013-02-18 21:55:00,71.3,61.0,30.05,East,98,10.0,16.0,70,0.00,,,0.00,0,Wunderground v.1.15,2013-02-19 07:55:00,
2013-02-18 22:00:00,71.2,61.3,30.05,NE,48,10.0,11.0,71,0.00,,,0.00,0,Wunderground v.1.15,2013-02-19 08:00:00,
2013-02-18 22:05:00,71.2,61.7,30.05,ENE,69,9.0,12.0,72,0.00,,,0.00,0,Wunderground v.1.15,2013-02-19 08:05:00,
2013-02-18 22:15:00,71.2,61.7,30.05,NE,46,9.0,10.0,72,0.00,,,0.00,0,Wunderground v.1.15,2013-02-19 08:15:00,
2013-02-18 22:25:00,71.3,62.2,30.05,NE,45,8.0,9.0,73,0.00,,,0.00,0,Wunderground v.1.15,2013-02-19 08:25:00,
2013-02-18 22:30:00,71.5,63.5,30.05,ESE,103,8.0,8.0,76,0.00,,,0.00,0,Wunderground v.1.15,2013-02-19 08:30:00,
2013-02-18 22:35:00,71.1,63.1,30.05,East,84,9.0,16.0,76,0.00,,,0.00,0,Wunderground v.1.15,2013-02-19 08:35:00,
2013-02-18 22:40:00,70.9,63.3,30.04,ESE,105,10.0,10.0,77,0.00,,,0.00,0,Wunderground v.1.15,2013-02-19 08:40:00,
2013-02-18 22:45:00,70.9,63.7,30.05,NE,52,9.0,11.0,78,0.00,,,0.00,0,Wunderground v.1.15,2013-02-19 08:45:00,
2013-02-18 22:50:00,70.8,63.6,30.04,East,86,8.0,8.0,78,0.00,,,0.00,0,Wunderground v.1.15,2013-02-19 08:50:00,
2013-02-18 22:55:00,70.5,62.9,30.05,NNE,24,7.0,10.0,77,0.00,,,0.00,0,Wunderground v.1.15,2013-02-19 08:55:00,
2013-02-18 23:00:00,70.5,63.3,30.05,East,85,8.0,9.0,78,0.00,,,0.00,0,Wunderground v.1.15,2013-02-19 09:00:00,
2013-02-18 23:10:00,70.6,63.4,30.05,East,82,6.0,7.0,78,0.00,,,0.00,0,Wunderground v.1.15,2013-02-19 09:10:00,
2013-02-18 23:15:00,70.5,63.3,30.05,NE,42,6.0,7.0,78,0.00,,,0.00,0,Wunderground v.1.15,2013-02-19 09:15:00,
2013-02-18 23:20:00,70.5,63.3,30.05,East,101,9.0,15.0,78,0.00,,,0.00,0,Wunderground v.1.15,2013-02-19 09:20:00,
2013-02-18 23:30:00,69.2,62.8,30.05,ESE,115,10.0,10.0,80,0.14,,,0.03,0,Wunderground v.1.15,2013-02-19 09:30:00,
2013-02-18 23:35:00,68.5,62.4,30.05,NE,42,7.0,10.0,81,0.06,,,0.03,0,Wunderground v.1.15,2013-02-19 09:35:00,
2013-02-18 23:40:00,68.3,62.6,30.05,ENE,62,4.0,5.0,82,0.04,,,0.03,0,Wunderground v.1.15,2013-02-19 09:40:00,
2013-02-18 23:49:00,68.4,63.0,30.05,ESE,117,8.0,8.0,83,0.04,,,0.04,0,Wunderground v.1.15,2013-02-19 09:49:00,
2013-02-18 23:55:00,68.8,63.4,30.05,ENE,63,8.0,12.0,83,0.04,,,0.04,0,Wunderground v.1.15,2013-02-19 09:55:00,